Time;durP1;ratioP1;P1;durP2;ratioP2;P2;SDS_P1;SDS_P2;PMS_P1;PMS_P2;Temp;Humidity;BMP_temperature;BMP_pressure;BME280_temperature;BME280_humidity;BME280_pressure;Samples;Min_cycle;Max_cycle;Signal;HPM_P1;HPM_P2
2021/08/11 00:01:35;;;;;;;6.07;2.88;;;20.30;99.90;;;;;;5014340;28;20495;-78
2021/08/11 00:04:01;;;;;;;7.88;3.13;;;20.20;99.90;;;;;;4996875;28;20047;-79
2021/08/11 00:06:27;;;;;;;6.50;3.15;;;20.10;99.90;;;;;;5012883;28;20036;-79
2021/08/11 00:08:52;;;;;;;5.78;2.90;;;20.10;99.90;;;;;;5014235;28;20125;-79
2021/08/11 00:11:18;;;;;;;7.07;3.25;;;20.20;99.90;;;;;;5014039;28;20092;-79
2021/08/11 00:13:44;;;;;;;8.75;3.65;;;20.30;99.90;;;;;;5013044;28;20033;-80
2021/08/11 00:16:10;;;;;;;5.28;3.05;;;20.20;99.90;;;;;;5012549;28;20046;-80
2021/08/11 00:18:37;;;;;;;8.48;3.25;;;20.30;99.90;;;;;;5014170;28;20391;-80
2021/08/11 00:21:03;;;;;;;5.32;3.08;;;20.40;99.90;;;;;;5013796;28;20053;-80
2021/08/11 00:23:29;;;;;;;4.45;3.13;;;20.30;99.90;;;;;;5015532;28;20515;-79
2021/08/11 00:25:56;;;;;;;7.80;3.38;;;20.30;99.90;;;;;;5033321;28;20079;-79
2021/08/11 00:28:24;;;;;;;7.78;3.03;;;20.20;99.90;;;;;;5032547;28;20041;-79
2021/08/11 00:30:52;;;;;;;5.60;3.20;;;20.10;99.90;;;;;;5049133;28;20025;-79
2021/08/11 00:33:19;;;;;;;6.80;3.50;;;20.10;99.90;;;;;;5033471;28;20052;-79
2021/08/11 00:35:45;;;;;;;6.22;3.17;;;20.20;99.90;;;;;;5033672;28;20033;-79
2021/08/11 00:38:11;;;;;;;6.18;3.10;;;20.20;99.90;;;;;;5032415;28;20033;-79
2021/08/11 00:40:37;;;;;;;6.13;2.95;;;20.20;99.90;;;;;;5032370;28;20026;-79
2021/08/11 00:43:09;;;;;;;6.20;3.17;;;20.20;99.90;;;;;;5033264;28;20488;-79
2021/08/11 00:45:36;;;;;;;5.47;2.97;;;20.10;99.90;;;;;;5032293;28;20032;-80
2021/08/11 00:48:03;;;;;;;5.68;3.05;;;20.10;99.90;;;;;;5032907;28;20029;-80
2021/08/11 00:50:31;;;;;;;7.72;2.65;;;20.00;99.90;;;;;;5015891;28;20471;-80
2021/08/11 00:52:56;;;;;;;5.97;3.20;;;20.00;99.90;;;;;;5032006;28;20026;-80
2021/08/11 00:55:23;;;;;;;7.57;3.22;;;20.00;99.90;;;;;;5015681;28;20125;-80
2021/08/11 00:57:51;;;;;;;6.65;2.80;;;20.00;99.90;;;;;;5013174;28;20038;-79
2021/08/11 01:00:18;;;;;;;6.68;3.30;;;20.00;99.90;;;;;;5012281;28;20030;-80
2021/08/11 01:02:46;;;;;;;4.65;3.00;;;20.10;99.90;;;;;;5011639;28;20048;-80
2021/08/11 01:05:13;;;;;;;7.95;3.38;;;20.00;99.90;;;;;;5012180;28;20046;-80
2021/08/11 01:07:41;;;;;;;5.70;3.00;;;19.90;99.90;;;;;;5013036;28;20056;-80
2021/08/11 01:10:08;;;;;;;6.65;2.97;;;20.00;99.90;;;;;;5011710;28;20026;-80
2021/08/11 01:12:35;;;;;;;6.45;3.10;;;20.10;99.90;;;;;;5012863;28;20030;-80
2021/08/11 01:15:04;;;;;;;6.78;2.90;;;20.20;99.90;;;;;;5010988;28;20643;-80
2021/08/11 01:17:30;;;;;;;6.85;3.58;;;20.20;99.90;;;;;;5012695;28;20136;-80
2021/08/11 01:19:59;;;;;;;8.25;3.03;;;20.20;99.90;;;;;;5011731;28;20041;-79
2021/08/11 01:22:45;;;;;;;8.70;3.33;;;20.20;99.90;;;;;;5011536;28;20593;-79
2021/08/11 01:25:33;;;;;;;9.73;4.07;;;20.30;99.90;;;;;;5011993;28;20046;-80
2021/08/11 01:28:32;;;;;;;6.13;3.17;;;20.20;99.90;;;;;;5012784;28;20038;-79
2021/08/11 01:31:07;;;;;;;5.85;3.28;;;20.20;99.90;;;;;;5010770;28;20030;-79
2021/08/11 01:33:58;;;;;;;8.80;3.42;;;20.20;99.90;;;;;;5012491;28;20482;-79
2021/08/11 01:36:55;;;;;;;6.28;3.38;;;20.20;99.90;;;;;;5012301;28;20065;-79
2021/08/11 01:39:42;;;;;;;10.82;3.83;;;20.10;99.90;;;;;;5017674;28;20102;-79
2021/08/11 01:42:25;;;;;;;10.43;3.60;;;20.00;99.90;;;;;;5019411;28;20030;-79
2021/08/11 01:45:27;;;;;;;7.25;3.55;;;19.90;99.90;;;;;;5011628;28;20038;-79
2021/08/11 01:48:03;;;;;;;8.88;3.70;;;20.00;99.90;;;;;;5008991;28;20066;-79
2021/08/11 01:50:35;;;;;;;7.38;3.50;;;19.90;99.90;;;;;;4996124;28;20044;-79
2021/08/11 01:53:04;;;;;;;7.38;4.28;;;20.00;99.90;;;;;;4995267;28;20038;-79
2021/08/11 01:55:30;;;;;;;7.30;3.47;;;20.00;99.90;;;;;;5011274;28;20040;-78
2021/08/11 01:57:56;;;;;;;7.75;3.70;;;19.90;99.90;;;;;;4994338;28;20030;-78
2021/08/11 02:00:24;;;;;;;5.25;3.50;;;19.80;99.90;;;;;;5011418;28;20121;-79
2021/08/11 02:02:52;;;;;;;6.68;3.70;;;19.50;99.90;;;;;;5011248;28;20034;-79
2021/08/11 02:05:22;;;;;;;9.75;4.13;;;19.40;99.90;;;;;;5028528;28;20034;-78
2021/08/11 02:07:48;;;;;;;7.75;4.00;;;19.40;99.90;;;;;;5030801;28;20025;-79
2021/08/11 02:10:16;;;;;;;6.22;3.90;;;19.50;99.90;;;;;;5032067;28;20033;-79
2021/08/11 02:12:42;;;;;;;9.15;4.03;;;19.60;99.90;;;;;;5030709;28;20030;-79
2021/08/11 02:15:10;;;;;;;5.70;3.33;;;19.50;99.90;;;;;;5017160;28;20060;-79
2021/08/11 02:17:41;;;;;;;9.68;4.03;;;19.50;99.90;;;;;;5034743;28;20382;-79
2021/08/11 02:20:09;;;;;;;9.80;4.60;;;19.30;99.90;;;;;;5034532;28;20040;-79
2021/08/11 02:22:36;;;;;;;16.70;4.82;;;19.20;99.90;;;;;;5034726;28;20461;-79
2021/08/11 02:25:11;;;;;;;6.30;3.88;;;19.10;99.90;;;;;;5018027;28;20043;-79
2021/08/11 02:27:59;;;;;;;7.22;4.22;;;18.90;99.90;;;;;;5034937;28;20057;-79
2021/08/11 02:30:35;;;;;;;8.15;4.30;;;18.90;99.90;;;;;;5035883;28;20037;-79
2021/08/11 02:33:16;;;;;;;6.95;4.38;;;18.80;99.90;;;;;;5034592;28;20505;-79
2021/08/11 02:35:55;;;;;;;7.38;3.55;;;18.90;99.90;;;;;;4995153;28;20039;-79
2021/08/11 02:38:31;;;;;;;10.00;3.83;;;18.90;99.90;;;;;;4995148;28;20088;-79
2021/08/11 02:40:59;;;;;;;8.95;3.45;;;19.20;99.90;;;;;;4995220;28;20035;-79
2021/08/11 02:43:41;;;;;;;5.95;3.92;;;19.40;99.90;;;;;;4996368;28;20057;-79
2021/08/11 02:46:20;;;;;;;7.80;3.90;;;19.40;99.90;;;;;;4995069;28;20038;-78
2021/08/11 02:49:08;;;;;;;7.20;3.65;;;19.30;99.90;;;;;;4994991;28;20030;-80
2021/08/11 02:51:36;;;;;;;6.25;3.78;;;19.30;99.90;;;;;;4995196;28;20487;-79
2021/08/11 02:54:15;;;;;;;8.23;4.10;;;19.20;99.90;;;;;;4994675;28;20034;-79
2021/08/11 02:56:47;;;;;;;8.48;3.53;;;19.00;99.90;;;;;;4994635;28;20077;-79
2021/08/11 02:59:14;;;;;;;6.68;4.00;;;19.10;99.90;;;;;;4995773;28;20521;-79
2021/08/11 03:01:43;;;;;;;9.93;3.88;;;19.20;99.90;;;;;;4994461;28;20062;-79
2021/08/11 03:04:09;;;;;;;5.45;3.50;;;19.20;99.90;;;;;;5010213;28;20032;-79
2021/08/11 03:06:36;;;;;;;10.88;3.58;;;19.30;99.90;;;;;;5033862;28;20029;-79
2021/08/11 03:09:03;;;;;;;6.03;3.28;;;19.40;99.90;;;;;;5017469;28;20029;-78
2021/08/11 03:11:29;;;;;;;8.27;3.83;;;19.40;99.90;;;;;;5035123;28;20029;-79
2021/08/11 03:13:56;;;;;;;5.95;3.17;;;19.40;99.90;;;;;;5033497;28;20057;-78
2021/08/11 03:16:22;;;;;;;10.60;3.95;;;19.20;99.90;;;;;;5033971;28;20033;-79
2021/08/11 03:18:52;;;;;;;8.75;3.65;;;19.30;99.90;;;;;;5034600;28;20056;-78
2021/08/11 03:21:18;;;;;;;7.75;3.53;;;19.20;99.90;;;;;;5033678;28;20041;-79
2021/08/11 03:23:44;;;;;;;7.20;3.47;;;19.20;99.90;;;;;;5011725;28;20080;-78
2021/08/11 03:26:10;;;;;;;8.60;3.67;;;19.20;99.90;;;;;;5014961;28;20057;-79
2021/08/11 03:28:35;;;;;;;8.77;3.72;;;19.10;99.90;;;;;;5030078;28;20487;-79
2021/08/11 03:31:01;;;;;;;4.95;3.42;;;19.10;99.90;;;;;;5015032;28;20034;-78
2021/08/11 03:33:27;;;;;;;6.18;3.55;;;19.40;99.90;;;;;;5013527;28;20112;-78
2021/08/11 03:35:53;;;;;;;6.60;3.67;;;19.50;99.90;;;;;;5014823;28;20030;-78
2021/08/11 03:38:19;;;;;;;7.00;4.30;;;19.40;99.90;;;;;;5012462;28;20034;-78
2021/08/11 03:40:44;;;;;;;6.55;3.95;;;19.20;99.90;;;;;;5015085;28;20080;-79
2021/08/11 03:43:10;;;;;;;7.03;4.03;;;19.20;99.90;;;;;;5014916;28;20112;-78
2021/08/11 03:45:36;;;;;;;8.18;4.10;;;19.00;99.90;;;;;;5028463;28;20660;-75
2021/08/11 03:48:03;;;;;;;6.40;4.15;;;18.90;99.90;;;;;;5012358;28;20026;-75
2021/08/11 03:50:29;;;;;;;8.23;4.18;;;19.00;99.90;;;;;;5013353;28;20018;-77
2021/08/11 03:52:55;;;;;;;8.30;3.83;;;18.80;99.90;;;;;;5014387;28;20037;-73
2021/08/11 03:55:21;;;;;;;8.55;3.95;;;18.70;99.90;;;;;;5006472;28;20427;-77
2021/08/11 03:57:46;;;;;;;8.45;4.68;;;18.60;99.90;;;;;;5008979;28;20070;-74
2021/08/11 04:00:13;;;;;;;6.47;4.32;;;18.70;99.90;;;;;;4994523;28;20473;-74
2021/08/11 04:02:39;;;;;;;7.30;4.07;;;18.80;99.90;;;;;;4994273;28;20133;-74
2021/08/11 04:05:07;;;;;;;6.95;4.10;;;18.90;99.90;;;;;;5009468;28;20039;-74
2021/08/11 04:07:35;;;;;;;6.13;3.70;;;18.90;99.90;;;;;;5009445;28;20065;-79
2021/08/11 04:10:07;;;;;;;6.45;4.63;;;18.70;99.90;;;;;;5009748;28;20469;-76
2021/08/11 04:12:33;;;;;;;14.60;4.03;;;18.80;99.90;;;;;;4994793;28;20030;-73
2021/08/11 04:14:58;;;;;;;7.60;4.35;;;18.80;99.90;;;;;;5009361;28;20070;-74
2021/08/11 04:17:25;;;;;;;8.88;3.67;;;18.80;99.90;;;;;;5009773;28;20057;-76
2021/08/11 04:19:51;;;;;;;10.02;4.88;;;18.90;99.90;;;;;;5029352;28;20034;-76
2021/08/11 04:22:17;;;;;;;9.52;4.03;;;18.80;99.90;;;;;;5014092;28;20129;-75
2021/08/11 04:24:43;;;;;;;7.00;4.20;;;18.90;99.90;;;;;;5013812;28;20106;-74
2021/08/11 04:27:09;;;;;;;6.95;4.30;;;18.50;99.90;;;;;;5013719;28;20522;-76
2021/08/11 04:29:35;;;;;;;7.50;4.32;;;18.30;99.90;;;;;;5012615;28;20065;-77
2021/08/11 04:32:01;;;;;;;8.77;4.82;;;18.30;99.90;;;;;;5028811;28;20069;-76
2021/08/11 04:34:26;;;;;;;8.98;4.80;;;18.40;99.90;;;;;;5029183;28;20386;-76
2021/08/11 04:36:52;;;;;;;7.88;4.20;;;18.60;99.90;;;;;;5028259;28;20030;-76
2021/08/11 04:39:18;;;;;;;7.90;4.55;;;18.60;99.90;;;;;;5013444;28;20041;-77
2021/08/11 04:41:44;;;;;;;6.18;4.00;;;18.70;99.90;;;;;;5028085;28;20084;-77
2021/08/11 04:44:11;;;;;;;10.40;4.70;;;18.70;99.90;;;;;;5013395;28;20041;-76
2021/08/11 04:46:40;;;;;;;6.85;4.38;;;18.60;99.90;;;;;;5013436;28;20037;-85
2021/08/11 04:49:06;;;;;;;11.48;4.03;;;18.50;99.90;;;;;;5012139;28;20033;-79
2021/08/11 04:51:32;;;;;;;7.85;4.47;;;18.60;99.90;;;;;;5012055;28;20030;-80
2021/08/11 04:53:58;;;;;;;8.73;4.32;;;18.70;99.90;;;;;;5028565;28;20040;-80
2021/08/11 04:56:24;;;;;;;10.18;4.90;;;18.60;99.90;;;;;;5013185;28;20029;-80
2021/08/11 04:58:50;;;;;;;6.97;4.28;;;18.50;99.90;;;;;;5013409;28;20029;-80
2021/08/11 05:01:15;;;;;;;8.27;4.45;;;18.60;99.90;;;;;;5013150;28;20038;-80
2021/08/11 05:03:42;;;;;;;9.27;4.72;;;18.50;99.90;;;;;;4997734;28;20565;-79
2021/08/11 05:06:08;;;;;;;8.90;4.50;;;18.40;99.90;;;;;;5017272;28;20030;-79
2021/08/11 05:08:38;;;;;;;7.70;4.07;;;18.50;99.90;;;;;;5013418;28;20100;-81
2021/08/11 05:11:04;;;;;;;11.27;5.13;;;18.50;99.90;;;;;;5011826;28;20030;-79
2021/08/11 05:13:30;;;;;;;9.15;5.45;;;18.40;99.90;;;;;;4995569;28;20521;-81
2021/08/11 05:15:57;;;;;;;10.82;5.03;;;18.40;99.90;;;;;;5012725;28;20054;-80
2021/08/11 05:18:23;;;;;;;10.25;5.03;;;18.60;99.90;;;;;;5011891;28;20500;-81
2021/08/11 05:20:50;;;;;;;8.80;4.82;;;18.50;99.90;;;;;;5036267;28;20045;-80
2021/08/11 05:23:15;;;;;;;8.60;4.40;;;18.60;99.90;;;;;;5020185;28;20037;-80
2021/08/11 05:25:41;;;;;;;8.00;5.20;;;18.60;99.90;;;;;;4995705;28;20046;-80
2021/08/11 05:28:08;;;;;;;9.10;4.53;;;18.70;99.90;;;;;;4993821;28;20038;-81
2021/08/11 05:30:36;;;;;;;10.77;4.70;;;18.70;99.90;;;;;;4995274;28;20034;-80
2021/08/11 05:33:02;;;;;;;10.50;4.97;;;18.80;99.90;;;;;;5012636;28;20123;-80
2021/08/11 05:35:27;;;;;;;8.52;4.93;;;18.70;99.90;;;;;;5011796;28;20049;-81
2021/08/11 05:37:54;;;;;;;7.32;4.15;;;18.80;99.90;;;;;;5012625;28;20470;-81
2021/08/11 05:40:19;;;;;;;12.18;4.93;;;18.90;99.90;;;;;;5012779;28;20049;-80
2021/08/11 05:42:46;;;;;;;7.63;5.20;;;18.90;99.90;;;;;;5028140;28;20414;-81
2021/08/11 05:45:12;;;;;;;8.98;4.60;;;18.90;99.90;;;;;;5012621;28;20065;-80
2021/08/11 05:47:39;;;;;;;7.78;4.50;;;19.10;99.90;;;;;;5011869;28;20022;-81
2021/08/11 05:50:06;;;;;;;7.70;4.38;;;19.20;99.90;;;;;;5008780;28;20109;-81
2021/08/11 05:52:33;;;;;;;12.60;5.38;;;19.30;99.90;;;;;;5012713;28;20091;-81
2021/08/11 05:54:58;;;;;;;7.93;4.72;;;19.40;99.90;;;;;;5027580;28;20061;-81
2021/08/11 05:57:24;;;;;;;11.68;4.32;;;19.30;99.90;;;;;;5027452;28;20064;-81
2021/08/11 05:59:50;;;;;;;8.55;4.30;;;19.40;99.90;;;;;;5011376;28;20065;-81
2021/08/11 06:02:16;;;;;;;9.52;4.85;;;19.50;99.90;;;;;;5027300;28;20038;-81
2021/08/11 06:04:42;;;;;;;7.15;4.28;;;19.60;99.90;;;;;;5027826;28;20113;-80
2021/08/11 06:07:07;;;;;;;9.63;5.10;;;19.60;99.90;;;;;;5012195;28;20117;-80
2021/08/11 06:09:33;;;;;;;7.18;4.32;;;19.60;99.90;;;;;;5027811;28;20036;-82
2021/08/11 06:11:59;;;;;;;12.18;5.68;;;19.60;99.90;;;;;;5011418;28;20076;-82
2021/08/11 06:14:25;;;;;;;9.13;4.82;;;19.70;99.90;;;;;;5011804;28;20491;-82
2021/08/11 06:16:51;;;;;;;6.95;4.13;;;19.80;99.90;;;;;;5011101;28;20052;-81
2021/08/11 06:19:17;;;;;;;9.82;4.57;;;19.80;99.90;;;;;;5011996;28;20038;-81
2021/08/11 06:21:43;;;;;;;10.02;4.72;;;19.90;99.90;;;;;;5027177;28;20041;-82
2021/08/11 06:24:09;;;;;;;9.45;4.85;;;20.20;99.90;;;;;;5027341;28;20029;-82
2021/08/11 06:26:36;;;;;;;8.95;4.95;;;20.20;99.90;;;;;;5011804;28;20030;-83
2021/08/11 06:29:02;;;;;;;9.77;4.95;;;20.40;99.90;;;;;;5012313;28;20415;-80
2021/08/11 06:31:28;;;;;;;10.00;4.50;;;20.40;99.90;;;;;;5027377;28;20029;-82
2021/08/11 06:33:54;;;;;;;9.70;4.88;;;20.50;99.90;;;;;;5012379;28;20074;-82
2021/08/11 06:36:21;;;;;;;9.10;4.28;;;20.60;99.90;;;;;;5011707;28;20026;-82
2021/08/11 06:38:49;;;;;;;6.68;3.97;;;20.70;99.90;;;;;;5027413;28;20037;-81
2021/08/11 06:41:17;;;;;;;10.77;5.40;;;20.80;99.90;;;;;;5011982;28;20080;-82
2021/08/11 06:43:45;;;;;;;7.60;4.45;;;20.80;99.90;;;;;;5011969;28;20046;-82
2021/08/11 06:46:12;;;;;;;9.13;4.55;;;20.80;99.90;;;;;;5012110;28;20033;-82
2021/08/11 06:48:38;;;;;;;13.27;4.60;;;20.80;99.90;;;;;;5027120;28;20033;-82
2021/08/11 06:51:06;;;;;;;8.05;4.10;;;20.80;99.90;;;;;;5027264;28;20030;-82
2021/08/11 06:53:32;;;;;;;9.00;5.15;;;20.90;99.90;;;;;;5011917;28;20034;-81
2021/08/11 06:55:58;;;;;;;8.10;4.22;;;20.80;99.90;;;;;;5011876;28;20030;-82
2021/08/11 06:58:24;;;;;;;8.70;4.25;;;20.90;99.90;;;;;;5026859;28;20037;-82
2021/08/11 07:00:50;;;;;;;7.07;4.03;;;21.10;99.90;;;;;;5014170;28;20038;-82
2021/08/11 07:03:18;;;;;;;9.27;4.57;;;21.10;99.90;;;;;;5030236;28;20033;-81
2021/08/11 07:05:45;;;;;;;7.88;4.18;;;21.20;99.90;;;;;;5015545;28;20125;-82
2021/08/11 07:08:11;;;;;;;10.85;5.18;;;21.30;99.90;;;;;;5030627;28;20436;-81
2021/08/11 07:10:37;;;;;;;11.00;5.20;;;21.50;99.90;;;;;;5015417;28;20088;-82
2021/08/11 07:13:03;;;;;;;11.00;5.55;;;21.10;99.90;;;;;;5030455;28;20394;-80
2021/08/11 07:15:29;;;;;;;8.15;4.85;;;20.80;99.90;;;;;;5014844;28;20050;-82
2021/08/11 07:17:56;;;;;;;7.13;4.00;;;20.70;99.90;;;;;;5015027;28;20037;-80
2021/08/11 07:20:25;;;;;;;7.88;4.53;;;21.00;99.90;;;;;;5014982;28;20497;-81
2021/08/11 07:22:50;;;;;;;9.20;4.82;;;21.20;99.90;;;;;;5030470;28;20091;-81
2021/08/11 07:25:16;;;;;;;9.52;4.68;;;21.40;99.90;;;;;;5030243;28;20109;-80
2021/08/11 07:27:42;;;;;;;10.52;4.88;;;21.50;99.90;;;;;;5014900;28;20041;-81
2021/08/11 07:30:10;;;;;;;10.15;4.60;;;21.30;99.90;;;;;;5015072;28;20037;-81
2021/08/11 07:32:36;;;;;;;8.30;4.22;;;21.10;99.90;;;;;;5030064;28;20093;-82
2021/08/11 07:35:03;;;;;;;8.00;4.70;;;21.40;99.90;;;;;;5030616;28;20539;-81
2021/08/11 07:37:29;;;;;;;8.48;4.45;;;21.60;99.90;;;;;;5015036;28;20164;-81
2021/08/11 07:39:55;;;;;;;10.20;4.97;;;21.60;99.90;;;;;;5014859;28;20112;-81
2021/08/11 07:42:21;;;;;;;8.95;4.43;;;21.70;99.90;;;;;;5015195;28;20608;-81
2021/08/11 07:44:47;;;;;;;7.50;4.63;;;21.70;99.90;;;;;;5031081;28;20038;-75
2021/08/11 07:47:13;;;;;;;7.30;4.10;;;21.80;99.90;;;;;;5021405;28;20030;-81
2021/08/11 07:49:39;;;;;;;11.45;5.18;;;21.70;99.90;;;;;;5027568;28;20044;-82
2021/08/11 07:52:05;;;;;;;9.45;4.47;;;21.60;99.90;;;;;;5025821;28;20069;-84
2021/08/11 07:54:31;;;;;;;9.98;4.60;;;21.90;99.90;;;;;;5027384;28;20416;-82
2021/08/11 07:56:56;;;;;;;10.30;4.38;;;22.00;99.90;;;;;;5028389;28;20085;-82
2021/08/11 07:59:22;;;;;;;7.57;4.13;;;22.00;99.90;;;;;;5027571;28;20038;-82
2021/08/11 08:01:48;;;;;;;11.90;4.80;;;22.20;99.90;;;;;;5027980;28;20058;-81
2021/08/11 08:04:14;;;;;;;10.13;4.68;;;22.10;99.90;;;;;;5026135;28;20125;-82
2021/08/11 08:06:40;;;;;;;6.18;3.80;;;22.30;99.90;;;;;;5016539;28;20386;-82
2021/08/11 08:09:06;;;;;;;10.23;4.28;;;22.30;99.90;;;;;;5014489;28;20037;-82
2021/08/11 08:11:33;;;;;;;10.75;5.38;;;22.40;99.90;;;;;;5012079;28;20556;-82
2021/08/11 08:13:59;;;;;;;8.57;4.18;;;22.60;99.90;;;;;;4996716;28;20037;-80
2021/08/11 08:16:24;;;;;;;7.53;4.10;;;22.20;99.90;;;;;;5012753;28;20391;-82
2021/08/11 08:18:50;;;;;;;6.32;3.40;;;22.50;99.90;;;;;;5012485;28;20112;-81
2021/08/11 08:21:16;;;;;;;9.23;4.47;;;22.30;99.90;;;;;;5014178;28;20021;-81
2021/08/11 08:23:42;;;;;;;10.98;3.83;;;22.50;99.90;;;;;;5014295;28;20044;-81
2021/08/11 08:26:07;;;;;;;6.60;3.78;;;22.60;99.90;;;;;;5012955;28;20479;-82
2021/08/11 08:28:33;;;;;;;6.40;3.35;;;22.60;99.90;;;;;;5014073;28;20037;-82
2021/08/11 08:30:59;;;;;;;7.60;3.63;;;22.20;99.90;;;;;;5014004;28;20613;-83
2021/08/11 08:33:25;;;;;;;7.35;4.03;;;22.40;99.90;;;;;;5013794;28;20033;-82
2021/08/11 08:35:50;;;;;;;10.50;5.05;;;22.60;99.90;;;;;;5014109;28;20434;-82
2021/08/11 08:38:18;;;;;;;6.40;3.63;;;22.40;99.90;;;;;;5013712;28;20037;-82
2021/08/11 08:40:46;;;;;;;6.88;3.80;;;22.60;99.90;;;;;;5012489;28;20037;-82
2021/08/11 08:43:12;;;;;;;6.22;3.42;;;22.30;99.90;;;;;;5013402;28;20395;-82
2021/08/11 08:45:43;;;;;;;6.35;3.05;;;22.50;99.90;;;;;;5013614;28;20057;-82
2021/08/11 08:48:09;;;;;;;5.97;3.10;;;22.60;99.90;;;;;;5012611;28;20029;-82
2021/08/11 08:50:35;;;;;;;7.68;2.90;;;22.80;99.90;;;;;;5012213;28;20121;-82
2021/08/11 08:53:03;;;;;;;7.30;3.78;;;23.10;99.90;;;;;;5029004;28;20026;-82
2021/08/11 08:55:31;;;;;;;6.70;3.30;;;23.20;99.90;;;;;;5012255;28;20453;-83
2021/08/11 08:57:57;;;;;;;5.60;3.05;;;23.10;99.90;;;;;;5013661;28;20080;-82
2021/08/11 09:00:23;;;;;;;7.60;3.17;;;23.30;99.90;;;;;;5018480;28;20033;-82
2021/08/11 09:02:49;;;;;;;9.50;3.28;;;23.60;99.90;;;;;;5019095;28;20038;-82
2021/08/11 09:05:15;;;;;;;6.15;2.88;;;23.90;99.90;;;;;;5012916;28;20038;-83
2021/08/11 09:07:47;;;;;;;6.32;2.92;;;24.20;99.90;;;;;;5013392;28;20368;-83
2021/08/11 09:10:24;;;;;;;8.25;2.90;;;24.30;99.90;;;;;;5012145;28;20038;-83
2021/08/11 09:12:53;;;;;;;5.38;2.92;;;24.30;99.90;;;;;;5013978;28;20026;-83
2021/08/11 09:15:42;;;;;;;7.57;3.10;;;24.30;99.90;;;;;;5012726;28;20076;-83
2021/08/11 09:18:20;;;;;;;5.32;3.00;;;24.60;99.90;;;;;;5011944;28;20053;-83
2021/08/11 09:21:09;;;;;;;6.38;3.10;;;24.70;99.90;;;;;;5028177;28;20034;-83
2021/08/11 09:23:45;;;;;;;5.03;2.40;;;24.90;99.90;;;;;;5021665;28;20100;-83
2021/08/11 09:26:16;;;;;;;6.40;2.85;;;24.40;99.90;;;;;;5013134;28;20034;-83
2021/08/11 09:28:46;;;;;;;6.05;2.47;;;24.60;99.90;;;;;;4995985;28;20045;-84
2021/08/11 09:31:30;;;;;;;45.50;26.05;;;24.70;99.90;;;;;;5011592;28;20033;-83
2021/08/11 09:34:02;;;;;;;6.80;3.90;;;24.80;99.90;;;;;;5012485;28;20121;-84
2021/08/11 09:36:51;;;;;;;8.07;2.97;;;25.00;99.90;;;;;;5012588;28;20022;-86
2021/08/11 09:39:18;;;;;;;7.32;3.00;;;24.90;99.90;;;;;;5011408;28;20034;-81
2021/08/11 09:42:05;;;;;;;4.80;2.40;;;25.30;99.90;;;;;;5012827;28;20030;-79
2021/08/11 09:44:31;;;;;;;5.53;2.92;;;25.40;99.90;;;;;;5011557;28;20057;-79
2021/08/11 09:47:14;;;;;;;7.70;3.25;;;25.60;99.90;;;;;;5011730;28;20025;-79
2021/08/11 09:49:40;;;;;;;5.30;2.72;;;25.70;99.90;;;;;;4997211;28;20069;-79
2021/08/11 09:52:06;;;;;;;5.10;2.50;;;25.90;99.90;;;;;;5008191;28;20062;-79
2021/08/11 09:54:33;;;;;;;5.28;2.83;;;25.80;99.90;;;;;;4992746;28;20069;-79
2021/08/11 09:56:59;;;;;;;6.47;2.60;;;26.00;99.90;;;;;;4992996;28;20031;-77
2021/08/11 09:59:27;;;;;;;4.88;2.70;;;26.30;99.90;;;;;;5007883;28;20044;-80
2021/08/11 10:02:16;;;;;;;5.15;2.17;;;26.50;99.40;;;;;;5007875;28;20041;-79
2021/08/11 10:04:42;;;;;;;4.90;2.38;;;26.50;99.50;;;;;;4992771;28;20043;-80
2021/08/11 10:07:08;;;;;;;6.40;2.90;;;26.60;98.90;;;;;;4992932;28;20126;-79
2021/08/11 10:09:34;;;;;;;5.75;2.60;;;26.80;98.50;;;;;;4992940;28;20026;-80
2021/08/11 10:12:00;;;;;;;5.32;3.17;;;26.50;98.60;;;;;;4992842;28;20426;-79
2021/08/11 10:14:34;;;;;;;5.38;2.53;;;26.30;98.90;;;;;;4992678;28;20074;-80
2021/08/11 10:17:01;;;;;;;4.65;2.35;;;26.30;99.10;;;;;;4993029;28;20045;-79
2021/08/11 10:19:32;;;;;;;10.32;2.83;;;26.30;99.90;;;;;;4992504;28;20073;-79
2021/08/11 10:22:02;;;;;;;7.30;2.70;;;26.60;98.90;;;;;;4992979;28;20046;-80
2021/08/11 10:24:29;;;;;;;6.45;2.20;;;26.90;98.60;;;;;;5007875;28;20062;-79
2021/08/11 10:26:57;;;;;;;7.43;3.40;;;27.00;98.20;;;;;;4992809;28;20097;-78
2021/08/11 10:29:24;;;;;;;5.13;3.00;;;27.00;98.80;;;;;;5007560;28;20101;-79
2021/08/11 10:31:50;;;;;;;8.10;3.08;;;26.70;97.90;;;;;;4992808;28;20030;-78
2021/08/11 10:34:18;;;;;;;5.00;2.60;;;26.90;99.30;;;;;;4992698;28;20113;-79
2021/08/11 10:36:47;;;;;;;4.40;2.25;;;27.00;97.40;;;;;;4996656;28;20026;-79
2021/08/11 10:39:16;;;;;;;7.32;2.22;;;27.10;96.40;;;;;;4996632;28;20042;-79
2021/08/11 10:41:43;;;;;;;4.25;2.20;;;27.10;96.50;;;;;;4995262;28;20038;-78
2021/08/11 10:44:23;;;;;;;8.95;3.45;;;27.20;96.20;;;;;;5011133;28;20035;-80
2021/08/11 10:47:00;;;;;;;5.47;2.65;;;27.30;96.00;;;;;;5009483;28;20438;-81
2021/08/11 10:49:29;;;;;;;5.80;2.50;;;27.40;95.70;;;;;;4996150;28;20045;-81
2021/08/11 10:52:02;;;;;;;5.17;2.50;;;27.40;95.60;;;;;;5011061;28;20030;-82
2021/08/11 10:54:48;;;;;;;4.28;2.30;;;27.50;95.00;;;;;;5010245;28;20038;-81
2021/08/11 10:57:14;;;;;;;5.43;2.35;;;27.80;95.60;;;;;;4996068;28;20038;-74
2021/08/11 10:59:45;;;;;;;7.05;2.63;;;27.90;95.60;;;;;;5011001;28;20481;-73
2021/08/11 11:02:49;;;;;;;5.57;2.45;;;28.00;94.60;;;;;;4995664;28;20053;-73
2021/08/11 11:05:26;;;;;;;5.72;2.90;;;28.40;94.50;;;;;;5027178;28;20028;-73
2021/08/11 11:08:11;;;;;;;5.82;2.75;;;28.80;94.20;;;;;;5015338;28;20038;-74
2021/08/11 11:10:44;;;;;;;7.10;2.60;;;29.10;93.00;;;;;;5015094;28;20044;-74
2021/08/11 11:13:34;;;;;;;6.28;3.35;;;29.00;92.80;;;;;;5014197;28;20033;-74
2021/08/11 11:16:04;;;;;;;4.68;2.58;;;28.30;94.00;;;;;;5014892;28;20050;-74
2021/08/11 11:18:30;;;;;;;3.75;2.10;;;28.60;92.70;;;;;;5013594;28;20088;-73
2021/08/11 11:20:56;;;;;;;8.32;3.42;;;27.90;93.30;;;;;;5013752;28;20421;-73
2021/08/11 11:23:32;;;;;;;6.85;2.63;;;28.20;93.20;;;;;;5014884;28;20038;-74
2021/08/11 11:26:01;;;;;;;7.85;3.30;;;28.20;93.50;;;;;;5015171;28;20066;-74
2021/08/11 11:29:05;;;;;;;5.53;3.00;;;28.20;93.40;;;;;;5014719;28;20045;-73
2021/08/11 11:31:39;;;;;;;4.45;2.20;;;28.40;94.30;;;;;;5014970;28;20038;-74
2021/08/11 11:34:28;;;;;;;9.63;3.13;;;28.20;93.30;;;;;;5014821;28;20038;-73
2021/08/11 11:36:58;;;;;;;8.13;3.00;;;28.30;94.40;;;;;;5015270;28;20033;-73
2021/08/11 11:39:25;;;;;;;6.25;2.70;;;28.30;93.80;;;;;;5014421;28;20038;-73
2021/08/11 11:42:25;;;;;;;5.20;2.50;;;28.60;92.80;;;;;;5014746;28;20048;-74
2021/08/11 11:45:07;;;;;;;4.80;2.17;;;29.00;92.40;;;;;;5002644;28;20044;-74
2021/08/11 11:47:37;;;;;;;6.63;2.58;;;29.40;92.60;;;;;;5013367;28;20037;-74
2021/08/11 11:50:21;;;;;;;5.80;3.00;;;29.60;91.40;;;;;;5014820;28;20057;-74
2021/08/11 11:53:02;;;;;;;7.18;2.28;;;29.30;91.40;;;;;;5014355;28;20038;-73
2021/08/11 11:55:41;;;;;;;5.10;2.42;;;29.20;92.20;;;;;;5011240;28;20046;-74
2021/08/11 11:58:16;;;;;;;5.88;3.00;;;28.80;92.50;;;;;;5014315;28;20080;-73
2021/08/11 12:00:45;;;;;;;5.60;2.85;;;29.10;91.90;;;;;;5029252;28;20432;-73
2021/08/11 12:03:12;;;;;;;6.53;2.65;;;28.60;92.10;;;;;;5014440;28;20458;-73
2021/08/11 12:05:52;;;;;;;6.18;2.53;;;29.10;91.80;;;;;;5029341;28;20479;-74
2021/08/11 12:08:21;;;;;;;5.40;2.42;;;29.10;91.50;;;;;;5028991;28;20038;-74
2021/08/11 12:11:00;;;;;;;4.47;2.58;;;29.20;91.60;;;;;;5013719;28;20121;-73
2021/08/11 12:13:37;;;;;;;4.55;2.45;;;28.20;92.30;;;;;;5028108;28;20056;-74
2021/08/11 12:16:03;;;;;;;8.82;2.47;;;28.60;92.40;;;;;;5027617;28;20057;-73
2021/08/11 12:18:28;;;;;;;8.50;2.50;;;28.90;92.30;;;;;;5013890;28;20025;-74
2021/08/11 12:21:02;;;;;;;5.28;2.60;;;29.30;91.50;;;;;;5029373;28;20026;-74
2021/08/11 12:23:31;;;;;;;5.03;2.47;;;29.60;90.90;;;;;;5013528;28;20536;-74
2021/08/11 12:26:06;;;;;;;3.83;2.20;;;29.10;90.60;;;;;;5013997;28;20026;-74
2021/08/11 12:28:40;;;;;;;4.25;2.03;;;28.70;91.60;;;;;;5028673;28;20092;-74
2021/08/11 12:31:11;;;;;;;4.90;2.13;;;28.60;91.60;;;;;;5028285;28;20030;-74
2021/08/11 12:33:42;;;;;;;5.80;1.70;;;28.60;91.90;;;;;;5028399;28;20034;-72
2021/08/11 12:36:21;;;;;;;3.83;2.00;;;29.20;91.50;;;;;;5029119;28;20116;-71
2021/08/11 12:39:19;;;;;;;4.80;2.17;;;29.40;91.10;;;;;;5029400;28;20061;-72
2021/08/11 12:41:58;;;;;;;6.88;1.90;;;28.90;91.20;;;;;;5013092;28;20528;-72
2021/08/11 12:44:28;;;;;;;5.05;1.80;;;29.60;90.60;;;;;;5013805;28;20037;-73
2021/08/11 12:47:05;;;;;;;4.00;2.20;;;29.30;90.30;;;;;;5028639;28;20041;-73
2021/08/11 12:49:49;;;;;;;4.68;1.95;;;29.70;90.10;;;;;;5028597;28;20045;-73
2021/08/11 12:52:19;;;;;;;4.88;2.25;;;29.50;90.60;;;;;;5028351;28;20438;-74
2021/08/11 12:55:04;;;;;;;6.10;1.90;;;29.60;90.10;;;;;;5028226;28;20038;-74
2021/08/11 12:57:38;;;;;;;5.97;2.03;;;29.50;90.60;;;;;;5012685;28;20479;-72
2021/08/11 13:00:17;;;;;;;5.65;2.00;;;29.80;90.80;;;;;;5013042;28;20049;-72